sensor_id;sensor_type;location;lat;lon;timestamp;P1;durP1;ratioP1;P2;durP2;ratioP2
74541;SDS011;63015;45.378;20.360;2023-04-15T00:00:28;10.50;;;4.60;;
74541;SDS011;63015;45.378;20.360;2023-04-15T00:02:29;9.55;;;4.93;;
74541;SDS011;63015;45.378;20.360;2023-04-15T00:04:30;10.05;;;5.13;;
74541;SDS011;63015;45.378;20.360;2023-04-15T00:06:32;9.77;;;5.13;;
74541;SDS011;63015;45.378;20.360;2023-04-15T00:08:33;8.90;;;4.40;;
74541;SDS011;63015;45.378;20.360;2023-04-15T00:10:33;9.98;;;5.22;;
74541;SDS011;63015;45.378;20.360;2023-04-15T00:12:34;17.48;;;6.57;;
74541;SDS011;63015;45.378;20.360;2023-04-15T00:14:35;16.00;;;7.22;;
74541;SDS011;63015;45.378;20.360;2023-04-15T00:16:36;15.75;;;6.95;;
74541;SDS011;63015;45.378;20.360;2023-04-15T00:18:36;11.57;;;5.82;;
74541;SDS011;63015;45.378;20.360;2023-04-15T00:20:37;11.80;;;5.60;;
74541;SDS011;63015;45.378;20.360;2023-04-15T00:22:38;11.38;;;5.78;;
74541;SDS011;63015;45.378;20.360;2023-04-15T00:24:38;11.60;;;5.90;;
74541;SDS011;63015;45.378;20.360;2023-04-15T00:26:39;12.15;;;6.10;;
74541;SDS011;63015;45.378;20.360;2023-04-15T00:28:39;14.40;;;6.40;;
74541;SDS011;63015;45.378;20.360;2023-04-15T00:30:40;12.23;;;6.13;;
74541;SDS011;63015;45.378;20.360;2023-04-15T00:32:41;12.23;;;6.18;;
74541;SDS011;63015;45.378;20.360;2023-04-15T00:34:41;10.18;;;5.30;;
74541;SDS011;63015;45.378;20.360;2023-04-15T00:36:42;10.95;;;5.32;;
74541;SDS011;63015;45.378;20.360;2023-04-15T00:38:43;11.15;;;5.45;;
74541;SDS011;63015;45.378;20.360;2023-04-15T00:40:44;11.02;;;5.28;;
74541;SDS011;63015;45.378;20.360;2023-04-15T00:42:45;10.95;;;5.50;;
74541;SDS011;63015;45.378;20.360;2023-04-15T00:44:46;10.38;;;5.03;;
74541;SDS011;63015;45.378;20.360;2023-04-15T00:46:46;10.32;;;5.00;;
74541;SDS011;63015;45.378;20.360;2023-04-15T00:48:50;9.00;;;4.97;;
74541;SDS011;63015;45.378;20.360;2023-04-15T00:50:50;11.25;;;5.50;;
74541;SDS011;63015;45.378;20.360;2023-04-15T00:52:51;10.88;;;5.32;;
74541;SDS011;63015;45.378;20.360;2023-04-15T00:54:52;9.75;;;5.38;;
74541;SDS011;63015;45.378;20.360;2023-04-15T00:56:52;11.73;;;5.03;;
74541;SDS011;63015;45.378;20.360;2023-04-15T00:58:53;14.02;;;6.50;;
74541;SDS011;63015;45.378;20.360;2023-04-15T01:00:55;21.00;;;8.77;;
74541;SDS011;63015;45.378;20.360;2023-04-15T01:02:56;19.05;;;8.68;;
74541;SDS011;63015;45.378;20.360;2023-04-15T01:04:56;12.73;;;6.05;;
74541;SDS011;63015;45.378;20.360;2023-04-15T01:06:57;12.15;;;5.95;;
74541;SDS011;63015;45.378;20.360;2023-04-15T01:08:59;10.45;;;5.55;;
74541;SDS011;63015;45.378;20.360;2023-04-15T01:11:00;11.85;;;5.65;;
74541;SDS011;63015;45.378;20.360;2023-04-15T01:13:02;12.05;;;5.45;;
74541;SDS011;63015;45.378;20.360;2023-04-15T01:15:03;11.20;;;5.65;;
74541;SDS011;63015;45.378;20.360;2023-04-15T01:17:04;10.38;;;5.32;;
74541;SDS011;63015;45.378;20.360;2023-04-15T01:19:07;9.70;;;5.10;;
74541;SDS011;63015;45.378;20.360;2023-04-15T01:21:09;10.45;;;5.63;;
74541;SDS011;63015;45.378;20.360;2023-04-15T01:23:10;9.77;;;5.00;;
74541;SDS011;63015;45.378;20.360;2023-04-15T01:25:14;11.48;;;5.40;;
74541;SDS011;63015;45.378;20.360;2023-04-15T01:27:18;16.17;;;7.63;;
74541;SDS011;63015;45.378;20.360;2023-04-15T01:29:19;15.15;;;6.63;;
74541;SDS011;63015;45.378;20.360;2023-04-15T01:31:20;15.25;;;6.53;;
74541;SDS011;63015;45.378;20.360;2023-04-15T01:33:21;17.55;;;7.55;;
74541;SDS011;63015;45.378;20.360;2023-04-15T01:35:22;16.15;;;6.95;;
74541;SDS011;63015;45.378;20.360;2023-04-15T01:37:25;15.40;;;7.15;;
74541;SDS011;63015;45.378;20.360;2023-04-15T01:39:25;12.43;;;6.55;;
74541;SDS011;63015;45.378;20.360;2023-04-15T01:41:30;10.10;;;5.35;;
74541;SDS011;63015;45.378;20.360;2023-04-15T01:43:30;16.38;;;7.18;;
74541;SDS011;63015;45.378;20.360;2023-04-15T01:45:31;18.02;;;7.47;;
74541;SDS011;63015;45.378;20.360;2023-04-15T01:47:32;15.25;;;6.93;;
74541;SDS011;63015;45.378;20.360;2023-04-15T01:49:34;13.77;;;6.82;;
74541;SDS011;63015;45.378;20.360;2023-04-15T01:51:35;14.82;;;7.22;;
74541;SDS011;63015;45.378;20.360;2023-04-15T01:53:35;15.63;;;6.40;;
74541;SDS011;63015;45.378;20.360;2023-04-15T01:55:36;16.23;;;7.70;;
74541;SDS011;63015;45.378;20.360;2023-04-15T01:57:37;23.40;;;8.25;;
74541;SDS011;63015;45.378;20.360;2023-04-15T01:59:39;25.45;;;10.10;;
74541;SDS011;63015;45.378;20.360;2023-04-15T02:01:41;24.13;;;9.02;;
74541;SDS011;63015;45.378;20.360;2023-04-15T02:03:41;18.50;;;6.45;;
74541;SDS011;63015;45.378;20.360;2023-04-15T02:05:42;10.52;;;4.97;;
74541;SDS011;63015;45.378;20.360;2023-04-15T02:07:44;13.38;;;5.75;;
74541;SDS011;63015;45.378;20.360;2023-04-15T02:09:45;11.55;;;5.18;;
74541;SDS011;63015;45.378;20.360;2023-04-15T02:11:45;13.60;;;6.28;;
74541;SDS011;63015;45.378;20.360;2023-04-15T02:13:46;14.13;;;5.22;;
74541;SDS011;63015;45.378;20.360;2023-04-15T02:15:49;12.07;;;5.68;;
74541;SDS011;63015;45.378;20.360;2023-04-15T02:17:53;15.15;;;6.10;;
74541;SDS011;63015;45.378;20.360;2023-04-15T02:19:57;18.95;;;7.85;;
74541;SDS011;63015;45.378;20.360;2023-04-15T02:21:58;21.50;;;9.18;;
74541;SDS011;63015;45.378;20.360;2023-04-15T02:24:00;18.73;;;6.95;;
74541;SDS011;63015;45.378;20.360;2023-04-15T02:26:01;18.45;;;7.70;;
74541;SDS011;63015;45.378;20.360;2023-04-15T02:28:05;29.95;;;11.30;;
74541;SDS011;63015;45.378;20.360;2023-04-15T02:30:05;38.63;;;12.50;;
74541;SDS011;63015;45.378;20.360;2023-04-15T02:32:08;29.08;;;9.70;;
74541;SDS011;63015;45.378;20.360;2023-04-15T02:34:08;19.40;;;7.25;;
74541;SDS011;63015;45.378;20.360;2023-04-15T02:36:09;13.00;;;6.20;;
74541;SDS011;63015;45.378;20.360;2023-04-15T02:38:11;16.05;;;6.65;;
74541;SDS011;63015;45.378;20.360;2023-04-15T02:40:13;13.15;;;6.68;;
74541;SDS011;63015;45.378;20.360;2023-04-15T02:42:14;15.07;;;7.25;;
74541;SDS011;63015;45.378;20.360;2023-04-15T02:44:15;9.10;;;5.65;;
74541;SDS011;63015;45.378;20.360;2023-04-15T02:46:18;9.23;;;5.25;;
74541;SDS011;63015;45.378;20.360;2023-04-15T02:48:18;12.00;;;5.55;;
74541;SDS011;63015;45.378;20.360;2023-04-15T02:50:19;9.88;;;4.80;;
74541;SDS011;63015;45.378;20.360;2023-04-15T02:52:23;11.32;;;5.22;;
74541;SDS011;63015;45.378;20.360;2023-04-15T02:54:24;9.30;;;4.85;;
74541;SDS011;63015;45.378;20.360;2023-04-15T02:56:28;10.20;;;5.03;;
74541;SDS011;63015;45.378;20.360;2023-04-15T02:58:30;9.73;;;4.30;;
74541;SDS011;63015;45.378;20.360;2023-04-15T03:00:31;11.05;;;5.47;;
74541;SDS011;63015;45.378;20.360;2023-04-15T03:02:35;11.90;;;5.75;;
74541;SDS011;63015;45.378;20.360;2023-04-15T03:04:37;9.77;;;5.30;;
74541;SDS011;63015;45.378;20.360;2023-04-15T03:06:39;9.75;;;5.28;;
74541;SDS011;63015;45.378;20.360;2023-04-15T03:08:42;12.75;;;5.63;;
74541;SDS011;63015;45.378;20.360;2023-04-15T03:10:42;10.27;;;5.55;;
74541;SDS011;63015;45.378;20.360;2023-04-15T03:12:43;9.32;;;5.20;;
74541;SDS011;63015;45.378;20.360;2023-04-15T03:14:48;11.55;;;5.18;;
74541;SDS011;63015;45.378;20.360;2023-04-15T03:16:49;9.82;;;5.60;;
74541;SDS011;63015;45.378;20.360;2023-04-15T03:18:51;9.80;;;5.05;;
74541;SDS011;63015;45.378;20.360;2023-04-15T03:20:54;10.77;;;5.60;;
74541;SDS011;63015;45.378;20.360;2023-04-15T03:22:55;11.70;;;5.38;;
74541;SDS011;63015;45.378;20.360;2023-04-15T03:24:57;10.90;;;5.40;;
74541;SDS011;63015;45.378;20.360;2023-04-15T03:26:58;9.07;;;5.95;;
74541;SDS011;63015;45.378;20.360;2023-04-15T03:28:59;9.98;;;5.57;;
74541;SDS011;63015;45.378;20.360;2023-04-15T03:31:00;10.55;;;5.57;;
74541;SDS011;63015;45.378;20.360;2023-04-15T03:33:01;9.30;;;5.53;;
74541;SDS011;63015;45.378;20.360;2023-04-15T03:35:01;10.63;;;5.88;;
74541;SDS011;63015;45.378;20.360;2023-04-15T03:37:02;11.52;;;5.70;;
74541;SDS011;63015;45.378;20.360;2023-04-15T03:39:03;10.52;;;6.00;;
74541;SDS011;63015;45.378;20.360;2023-04-15T03:41:03;9.80;;;5.80;;
74541;SDS011;63015;45.378;20.360;2023-04-15T03:43:04;10.63;;;6.47;;
74541;SDS011;63015;45.378;20.360;2023-04-15T03:45:05;10.32;;;5.60;;
74541;SDS011;63015;45.378;20.360;2023-04-15T03:47:06;10.95;;;5.60;;
74541;SDS011;63015;45.378;20.360;2023-04-15T03:49:07;10.07;;;5.88;;
74541;SDS011;63015;45.378;20.360;2023-04-15T03:51:08;12.23;;;6.47;;
74541;SDS011;63015;45.378;20.360;2023-04-15T03:53:09;12.63;;;6.70;;
74541;SDS011;63015;45.378;20.360;2023-04-15T03:55:09;13.95;;;7.25;;
74541;SDS011;63015;45.378;20.360;2023-04-15T03:57:10;11.40;;;7.15;;
74541;SDS011;63015;45.378;20.360;2023-04-15T03:59:11;15.27;;;7.80;;
74541;SDS011;63015;45.378;20.360;2023-04-15T04:01:11;13.27;;;7.32;;
74541;SDS011;63015;45.378;20.360;2023-04-15T04:03:12;14.50;;;7.57;;
74541;SDS011;63015;45.378;20.360;2023-04-15T04:05:12;12.75;;;6.85;;
74541;SDS011;63015;45.378;20.360;2023-04-15T04:07:14;13.70;;;7.78;;
74541;SDS011;63015;45.378;20.360;2023-04-15T04:09:15;13.18;;;7.15;;
74541;SDS011;63015;45.378;20.360;2023-04-15T04:11:16;13.73;;;7.50;;
74541;SDS011;63015;45.378;20.360;2023-04-15T04:13:16;13.95;;;7.68;;
74541;SDS011;63015;45.378;20.360;2023-04-15T04:15:17;12.88;;;6.75;;
74541;SDS011;63015;45.378;20.360;2023-04-15T04:17:17;11.95;;;6.40;;
74541;SDS011;63015;45.378;20.360;2023-04-15T04:19:18;14.15;;;7.10;;
74541;SDS011;63015;45.378;20.360;2023-04-15T04:21:19;16.08;;;7.88;;
74541;SDS011;63015;45.378;20.360;2023-04-15T04:23:20;15.27;;;8.02;;
74541;SDS011;63015;45.378;20.360;2023-04-15T04:25:21;14.55;;;7.72;;
74541;SDS011;63015;45.378;20.360;2023-04-15T04:27:22;15.57;;;8.30;;
74541;SDS011;63015;45.378;20.360;2023-04-15T04:29:22;16.17;;;8.85;;
74541;SDS011;63015;45.378;20.360;2023-04-15T04:31:23;16.75;;;8.55;;
74541;SDS011;63015;45.378;20.360;2023-04-15T04:33:23;14.98;;;8.70;;
74541;SDS011;63015;45.378;20.360;2023-04-15T04:35:24;15.20;;;8.95;;
74541;SDS011;63015;45.378;20.360;2023-04-15T04:37:24;14.15;;;8.65;;
74541;SDS011;63015;45.378;20.360;2023-04-15T04:39:25;16.25;;;8.73;;
74541;SDS011;63015;45.378;20.360;2023-04-15T04:41:26;15.77;;;8.55;;
74541;SDS011;63015;45.378;20.360;2023-04-15T04:43:26;15.63;;;8.80;;
74541;SDS011;63015;45.378;20.360;2023-04-15T04:45:27;17.58;;;8.60;;
74541;SDS011;63015;45.378;20.360;2023-04-15T04:47:28;14.52;;;8.63;;
74541;SDS011;63015;45.378;20.360;2023-04-15T04:49:29;14.80;;;7.97;;
74541;SDS011;63015;45.378;20.360;2023-04-15T04:51:30;15.82;;;8.18;;
74541;SDS011;63015;45.378;20.360;2023-04-15T04:53:31;17.08;;;9.50;;
74541;SDS011;63015;45.378;20.360;2023-04-15T04:55:31;15.40;;;8.30;;
74541;SDS011;63015;45.378;20.360;2023-04-15T04:57:32;14.45;;;8.48;;
74541;SDS011;63015;45.378;20.360;2023-04-15T04:59:35;15.88;;;7.88;;
74541;SDS011;63015;45.378;20.360;2023-04-15T05:01:35;15.27;;;8.35;;
74541;SDS011;63015;45.378;20.360;2023-04-15T05:03:36;14.07;;;8.38;;
74541;SDS011;63015;45.378;20.360;2023-04-15T05:05:37;13.90;;;7.90;;
74541;SDS011;63015;45.378;20.360;2023-04-15T05:07:40;11.88;;;6.38;;
74541;SDS011;63015;45.378;20.360;2023-04-15T05:09:40;13.77;;;8.13;;
74541;SDS011;63015;45.378;20.360;2023-04-15T05:11:41;15.63;;;8.45;;
74541;SDS011;63015;45.378;20.360;2023-04-15T05:13:42;12.05;;;7.70;;
74541;SDS011;63015;45.378;20.360;2023-04-15T05:15:42;17.70;;;8.63;;
74541;SDS011;63015;45.378;20.360;2023-04-15T05:18:32;14.82;;;8.77;;
74541;SDS011;63015;45.378;20.360;2023-04-15T05:20:33;14.40;;;8.68;;
74541;SDS011;63015;45.378;20.360;2023-04-15T05:22:34;13.40;;;7.70;;
74541;SDS011;63015;45.378;20.360;2023-04-15T05:24:34;13.88;;;7.68;;
74541;SDS011;63015;45.378;20.360;2023-04-15T05:26:35;12.80;;;7.35;;
74541;SDS011;63015;45.378;20.360;2023-04-15T05:28:36;12.65;;;7.05;;
74541;SDS011;63015;45.378;20.360;2023-04-15T05:30:36;13.68;;;7.22;;
74541;SDS011;63015;45.378;20.360;2023-04-15T05:32:37;11.98;;;6.82;;
74541;SDS011;63015;45.378;20.360;2023-04-15T05:34:38;16.52;;;9.27;;
74541;SDS011;63015;45.378;20.360;2023-04-15T05:36:38;14.20;;;8.57;;
74541;SDS011;63015;45.378;20.360;2023-04-15T05:38:39;14.90;;;8.30;;
74541;SDS011;63015;45.378;20.360;2023-04-15T05:40:40;10.65;;;6.35;;
74541;SDS011;63015;45.378;20.360;2023-04-15T05:42:41;10.90;;;6.55;;
74541;SDS011;63015;45.378;20.360;2023-04-15T05:44:42;12.23;;;6.80;;
74541;SDS011;63015;45.378;20.360;2023-04-15T05:46:42;10.18;;;5.13;;
74541;SDS011;63015;45.378;20.360;2023-04-15T05:48:43;10.65;;;6.65;;
74541;SDS011;63015;45.378;20.360;2023-04-15T05:50:43;10.55;;;5.93;;
74541;SDS011;63015;45.378;20.360;2023-04-15T05:52:44;12.02;;;6.88;;
74541;SDS011;63015;45.378;20.360;2023-04-15T05:54:45;11.80;;;6.85;;
74541;SDS011;63015;45.378;20.360;2023-04-15T05:56:46;14.32;;;7.10;;
74541;SDS011;63015;45.378;20.360;2023-04-15T05:58:46;11.98;;;7.18;;
74541;SDS011;63015;45.378;20.360;2023-04-15T06:00:47;11.65;;;6.45;;
74541;SDS011;63015;45.378;20.360;2023-04-15T06:02:47;11.73;;;6.70;;
74541;SDS011;63015;45.378;20.360;2023-04-15T06:04:48;13.23;;;6.85;;
74541;SDS011;63015;45.378;20.360;2023-04-15T06:06:49;11.82;;;6.90;;
74541;SDS011;63015;45.378;20.360;2023-04-15T06:08:50;10.35;;;6.53;;
74541;SDS011;63015;45.378;20.360;2023-04-15T06:10:51;12.00;;;6.32;;
74541;SDS011;63015;45.378;20.360;2023-04-15T06:12:52;10.18;;;6.07;;
74541;SDS011;63015;45.378;20.360;2023-04-15T06:14:52;11.45;;;5.50;;
74541;SDS011;63015;45.378;20.360;2023-04-15T06:16:53;9.75;;;5.20;;
74541;SDS011;63015;45.378;20.360;2023-04-15T06:18:54;11.32;;;6.18;;
74541;SDS011;63015;45.378;20.360;2023-04-15T06:20:54;9.07;;;5.00;;
74541;SDS011;63015;45.378;20.360;2023-04-15T06:22:55;10.50;;;6.22;;
74541;SDS011;63015;45.378;20.360;2023-04-15T06:24:56;9.70;;;5.60;;
74541;SDS011;63015;45.378;20.360;2023-04-15T06:26:57;12.93;;;6.50;;
74541;SDS011;63015;45.378;20.360;2023-04-15T06:28:57;10.65;;;5.80;;
74541;SDS011;63015;45.378;20.360;2023-04-15T06:30:58;12.73;;;6.65;;
74541;SDS011;63015;45.378;20.360;2023-04-15T06:33:00;11.60;;;5.93;;
74541;SDS011;63015;45.378;20.360;2023-04-15T06:35:04;10.63;;;6.47;;
74541;SDS011;63015;45.378;20.360;2023-04-15T06:37:05;13.20;;;5.50;;
74541;SDS011;63015;45.378;20.360;2023-04-15T06:39:06;15.43;;;5.25;;
74541;SDS011;63015;45.378;20.360;2023-04-15T06:41:06;14.63;;;5.50;;
74541;SDS011;63015;45.378;20.360;2023-04-15T06:43:07;11.82;;;5.18;;
74541;SDS011;63015;45.378;20.360;2023-04-15T06:45:08;10.38;;;4.28;;
74541;SDS011;63015;45.378;20.360;2023-04-15T06:47:09;11.60;;;5.22;;
74541;SDS011;63015;45.378;20.360;2023-04-15T06:49:12;10.90;;;4.78;;
74541;SDS011;63015;45.378;20.360;2023-04-15T06:51:12;9.07;;;5.15;;
74541;SDS011;63015;45.378;20.360;2023-04-15T06:53:13;12.25;;;6.20;;
74541;SDS011;63015;45.378;20.360;2023-04-15T06:55:13;13.40;;;6.03;;
74541;SDS011;63015;45.378;20.360;2023-04-15T06:57:14;10.50;;;5.38;;
74541;SDS011;63015;45.378;20.360;2023-04-15T06:59:15;11.65;;;5.65;;
74541;SDS011;63015;45.378;20.360;2023-04-15T07:01:15;10.00;;;4.68;;
74541;SDS011;63015;45.378;20.360;2023-04-15T07:03:16;9.30;;;5.15;;
74541;SDS011;63015;45.378;20.360;2023-04-15T07:05:17;12.70;;;5.45;;
74541;SDS011;63015;45.378;20.360;2023-04-15T07:07:18;7.55;;;3.17;;
74541;SDS011;63015;45.378;20.360;2023-04-15T07:09:18;10.38;;;3.50;;
74541;SDS011;63015;45.378;20.360;2023-04-15T07:11:19;7.18;;;2.75;;
74541;SDS011;63015;45.378;20.360;2023-04-15T07:13:20;12.57;;;3.97;;
74541;SDS011;63015;45.378;20.360;2023-04-15T07:15:21;13.23;;;3.75;;
74541;SDS011;63015;45.378;20.360;2023-04-15T07:17:21;10.60;;;3.47;;
74541;SDS011;63015;45.378;20.360;2023-04-15T07:19:22;9.23;;;3.05;;
74541;SDS011;63015;45.378;20.360;2023-04-15T07:21:23;7.63;;;3.20;;
74541;SDS011;63015;45.378;20.360;2023-04-15T07:23:24;16.20;;;4.30;;
74541;SDS011;63015;45.378;20.360;2023-04-15T07:25:25;9.20;;;2.78;;
74541;SDS011;63015;45.378;20.360;2023-04-15T07:27:25;7.35;;;2.40;;
